createdAt,value
2018-03-15T00:00:29.323Z,25.97
2018-03-15T00:03:00.532Z,27.30
2018-03-15T00:05:31.622Z,27.43
2018-03-15T00:08:03.039Z,26.63
2018-03-15T00:10:34.012Z,29.73
2018-03-15T00:13:04.875Z,26.17
2018-03-15T00:15:35.613Z,27.93
2018-03-15T00:18:06.589Z,27.43
2018-03-15T00:20:37.359Z,26.63
2018-03-15T00:23:08.346Z,27.03
2018-03-15T00:25:39.718Z,28.03
2018-03-15T00:28:10.524Z,27.10
2018-03-15T00:30:41.518Z,26.77
2018-03-15T00:33:12.808Z,24.97
2018-03-15T00:35:43.783Z,25.90
2018-03-15T00:38:15.218Z,26.53
2018-03-15T00:40:46.579Z,24.87
2018-03-15T00:43:17.776Z,24.73
2018-03-15T00:45:48.288Z,26.93
2018-03-15T00:48:19.475Z,28.63
2018-03-15T00:50:50.845Z,27.73
2018-03-15T00:53:22.047Z,24.80
2018-03-15T00:55:53.224Z,25.57
2018-03-15T00:58:25.491Z,26.27
2018-03-15T01:00:56.613Z,26.27
2018-03-15T01:03:27.698Z,25.80
2018-03-15T01:05:58.612Z,27.23
2018-03-15T01:08:29.973Z,26.43
2018-03-15T01:11:01.234Z,25.70
2018-03-15T01:13:32.081Z,23.83
2018-03-15T01:16:03.272Z,26.47
2018-03-15T01:18:34.486Z,26.83
2018-03-15T01:21:05.623Z,23.67
2018-03-15T01:23:37.166Z,25.63
2018-03-15T01:26:08.149Z,23.27
2018-03-15T01:28:39.113Z,26.67
2018-03-15T01:31:10.216Z,26.43
2018-03-15T01:33:41.200Z,25.10
2018-03-15T01:36:12.354Z,25.53
2018-03-15T01:38:43.413Z,28.13
2018-03-15T01:41:15.556Z,28.53
2018-03-15T01:43:47.197Z,24.07
2018-03-15T01:46:18.124Z,27.20
2018-03-15T01:48:49.336Z,26.47
2018-03-15T01:51:20.317Z,25.70
2018-03-15T01:53:53.571Z,25.33
2018-03-15T01:56:24.721Z,23.73
2018-03-15T01:58:56.048Z,25.10
2018-03-15T02:01:27.449Z,24.93
2018-03-15T02:03:58.727Z,23.63
2018-03-15T02:06:30.073Z,29.97
2018-03-15T02:09:01.499Z,28.17
2018-03-15T02:11:32.259Z,24.00
2018-03-15T02:14:03.877Z,23.43
2018-03-15T02:16:34.784Z,25.70
2018-03-15T02:19:06.227Z,24.50
2018-03-15T02:21:37.340Z,28.73
2018-03-15T02:24:08.847Z,25.97
2018-03-15T02:26:40.359Z,25.53
2018-03-15T02:29:12.028Z,25.13
2018-03-15T02:31:43.363Z,25.10
2018-03-15T02:34:15.747Z,25.23
2018-03-15T02:36:47.510Z,26.20
2018-03-15T02:39:19.361Z,24.53
2018-03-15T02:41:50.164Z,26.60
2018-03-15T02:44:20.451Z,25.57
2018-03-15T02:46:51.314Z,26.17
2018-03-15T02:49:22.996Z,28.73
2018-03-15T02:51:53.963Z,25.67
2018-03-15T02:54:25.300Z,25.80
2018-03-15T02:56:56.607Z,25.13
2018-03-15T02:59:28.430Z,29.17
2018-03-15T03:02:06.104Z,27.17
2018-03-15T03:04:37.536Z,28.90
2018-03-15T03:07:08.714Z,26.10
2018-03-15T03:09:41.396Z,26.30
2018-03-15T03:12:12.327Z,28.53
2018-03-15T03:14:43.651Z,26.73
2018-03-15T03:17:14.679Z,27.07
2018-03-15T03:19:45.562Z,26.47
2018-03-15T03:22:16.717Z,28.00
2018-03-15T03:24:48.389Z,28.27
2018-03-15T03:27:20.751Z,27.93
2018-03-15T03:29:51.697Z,25.57
2018-03-15T03:32:22.020Z,25.07
2018-03-15T03:34:52.793Z,27.33
2018-03-15T03:37:24.258Z,27.93
2018-03-15T03:39:55.491Z,28.30
2018-03-15T03:42:26.080Z,28.40
2018-03-15T03:44:56.919Z,27.30
2018-03-15T03:47:27.498Z,27.43
2018-03-15T03:49:58.409Z,25.40
2018-03-15T03:52:29.106Z,29.20
2018-03-15T03:55:00.464Z,27.43
2018-03-15T03:57:31.062Z,27.57
2018-03-15T04:00:02.348Z,25.67
2018-03-15T04:02:33.475Z,27.13
2018-03-15T04:05:04.612Z,25.83
2018-03-15T04:10:38.174Z,26.60
2018-03-15T04:13:08.922Z,25.07
2018-03-15T04:15:40.316Z,27.70
2018-03-15T04:18:12.891Z,27.20
2018-03-15T04:20:43.457Z,28.00
2018-03-15T04:23:14.237Z,28.57
2018-03-15T04:25:44.506Z,25.60
2018-03-15T04:28:15.782Z,29.00
2018-03-15T04:30:47.172Z,27.60
2018-03-15T04:33:17.984Z,29.27
2018-03-15T04:35:49.013Z,26.97
2018-03-15T04:38:19.904Z,26.50
2018-03-15T04:40:51.172Z,29.27
2018-03-15T04:43:22.120Z,29.83
2018-03-15T04:45:54.539Z,24.97
2018-03-15T04:48:25.766Z,32.63
2018-03-15T04:50:58.882Z,26.40
2018-03-15T04:53:31.176Z,28.43
2018-03-15T04:56:02.557Z,30.57
2018-03-15T04:58:33.067Z,26.70
2018-03-15T05:01:05.320Z,30.00
2018-03-15T05:03:37.195Z,29.53
2018-03-15T05:06:09.035Z,32.00
2018-03-15T05:08:40.202Z,31.30
2018-03-15T05:11:11.621Z,27.03
2018-03-15T05:13:42.591Z,27.40
2018-03-15T05:16:13.735Z,28.27
2018-03-15T05:18:45.349Z,29.70
2018-03-15T05:21:18.862Z,30.53
2018-03-15T05:23:50.562Z,28.73
2018-03-15T05:26:21.719Z,29.10
2018-03-15T05:28:53.392Z,29.57
2018-03-15T05:31:25.384Z,28.37
2018-03-15T05:33:56.330Z,33.53
2018-03-15T05:36:28.290Z,33.97
2018-03-15T05:38:59.276Z,30.57
2018-03-15T05:41:31.214Z,31.23
2018-03-15T05:44:02.855Z,27.37
2018-03-15T05:46:34.143Z,31.80
2018-03-15T05:49:07.389Z,29.90
2018-03-15T05:51:39.088Z,29.97
2018-03-15T05:54:09.888Z,28.20
2018-03-15T05:56:41.642Z,29.87
2018-03-15T05:59:12.798Z,31.23
2018-03-15T06:01:44.552Z,30.23
2018-03-15T06:04:16.351Z,29.00
2018-03-15T06:06:47.489Z,29.17
2018-03-15T06:09:18.821Z,27.27
2018-03-15T06:11:50.630Z,28.93
2018-03-15T06:14:22.508Z,26.77
2018-03-15T06:16:53.921Z,28.80
2018-03-15T06:19:26.133Z,24.90
2018-03-15T06:21:58.940Z,27.80
2018-03-15T06:24:30.790Z,25.37
2018-03-15T06:27:02.658Z,24.93
2018-03-15T06:29:34.763Z,22.67
2018-03-15T06:32:06.102Z,22.40
2018-03-15T06:34:36.896Z,23.90
2018-03-15T06:37:10.101Z,24.33
2018-03-15T06:39:41.624Z,23.47
2018-03-15T06:42:14.740Z,22.77
2018-03-15T06:44:45.800Z,23.07
2018-03-15T06:47:16.909Z,24.43
2018-03-15T06:49:48.600Z,23.10
2018-03-15T06:52:19.587Z,23.20
2018-03-15T06:54:51.456Z,20.60
2018-03-15T06:57:22.359Z,19.97
2018-03-15T06:59:53.641Z,20.70
2018-03-15T07:02:25.057Z,20.67
2018-03-15T07:04:56.054Z,18.80
2018-03-15T07:07:39.573Z,20.27
2018-03-15T07:10:09.985Z,20.60
2018-03-15T07:12:40.808Z,21.87
2018-03-15T07:15:12.197Z,20.03
2018-03-15T07:17:42.535Z,21.97
2018-03-15T07:20:13.226Z,19.17
2018-03-15T07:22:43.411Z,21.67
2018-03-15T07:25:13.682Z,20.83
2018-03-15T07:27:43.818Z,19.17
2018-03-15T07:30:14.150Z,19.63
2018-03-15T07:32:44.879Z,21.67
2018-03-15T07:35:15.674Z,20.23
2018-03-15T07:37:46.465Z,19.87
2018-03-15T07:40:16.689Z,22.33
2018-03-15T07:42:46.867Z,20.47
2018-03-15T07:45:17.481Z,19.67
2018-03-15T07:47:48.148Z,20.83
2018-03-15T07:50:18.861Z,20.83
2018-03-15T07:52:49.670Z,21.40
2018-03-15T07:55:20.419Z,22.57
2018-03-15T07:57:51.515Z,21.47
2018-03-15T08:00:22.878Z,25.37
2018-03-15T08:02:54.006Z,21.00
2018-03-15T08:05:26.916Z,20.50
2018-03-15T08:07:57.631Z,20.43
2018-03-15T08:10:28.954Z,21.80
2018-03-15T08:13:00.262Z,20.97
2018-03-15T08:15:31.048Z,21.40
2018-03-15T08:18:02.350Z,24.20
2018-03-15T08:20:32.889Z,24.50
2018-03-15T08:23:06.318Z,21.83
2018-03-15T08:25:37.111Z,19.03
2018-03-15T08:28:08.517Z,24.50
2018-03-15T08:30:39.611Z,22.27
2018-03-15T08:33:12.767Z,20.10
2018-03-15T08:35:44.894Z,20.90
2018-03-15T08:38:16.224Z,19.83
2018-03-15T08:40:47.207Z,25.90
2018-03-15T08:43:18.423Z,20.97
2018-03-15T08:45:49.178Z,20.83
2018-03-15T08:48:19.631Z,20.10
2018-03-15T08:50:50.711Z,21.67
2018-03-15T08:53:21.216Z,19.17
2018-03-15T08:55:52.184Z,20.73
2018-03-15T08:58:23.437Z,18.83
2018-03-15T09:00:54.238Z,21.57
2018-03-15T09:03:30.472Z,18.63
2018-03-15T09:06:01.176Z,18.47
2018-03-15T09:08:31.666Z,18.43
2018-03-15T09:11:02.843Z,19.17
2018-03-15T09:13:34.663Z,19.20
2018-03-15T09:16:06.151Z,21.00
2018-03-15T09:18:37.354Z,18.50
2018-03-15T09:21:08.008Z,22.90
2018-03-15T09:23:38.816Z,18.10
2018-03-15T09:26:09.800Z,21.07
2018-03-15T09:28:40.468Z,21.77
2018-03-15T09:31:10.990Z,19.30
2018-03-15T09:33:41.921Z,17.77
2018-03-15T09:36:12.931Z,19.77
2018-03-15T09:38:44.304Z,19.07
2018-03-15T09:41:15.572Z,18.87
2018-03-15T09:43:46.447Z,17.33
2018-03-15T09:46:16.508Z,20.10
2018-03-15T09:48:46.785Z,16.57
2018-03-15T09:51:18.254Z,20.00
2018-03-15T09:54:53.089Z,19.10
2018-03-15T09:57:23.535Z,17.23
2018-03-15T09:59:55.541Z,18.20
2018-03-15T10:02:26.867Z,18.40
2018-03-15T10:04:58.165Z,18.07
2018-03-15T10:07:35.663Z,17.60
2018-03-15T10:10:08.015Z,16.87
2018-03-15T10:12:39.936Z,20.00
2018-03-15T10:15:15.927Z,17.50
2018-03-15T10:17:47.597Z,18.57
2018-03-15T10:20:17.958Z,17.67
2018-03-15T10:22:48.899Z,18.37
2018-03-15T10:25:26.391Z,19.27
2018-03-15T10:27:50.086Z,16.37
2018-03-15T10:30:21.554Z,18.07
2018-03-15T10:51:58.966Z,15.90
2018-03-15T10:57:36.644Z,14.93
2018-03-15T11:00:32.653Z,14.53
2018-03-15T11:03:14.654Z,12.73
2018-03-15T11:13:56.199Z,15.73
2018-03-15T11:17:48.129Z,12.90
2018-03-15T11:32:21.733Z,13.57
2018-03-15T11:34:53.702Z,13.77
2018-03-15T11:37:26.204Z,13.50
2018-03-15T11:39:59.039Z,12.63
2018-03-15T11:45:43.387Z,13.07
2018-03-15T11:48:18.418Z,13.10
2018-03-15T11:54:00.139Z,12.50
2018-03-15T11:59:31.142Z,12.33
2018-03-15T12:02:01.863Z,11.47
2018-03-15T12:04:32.604Z,10.47
2018-03-15T12:07:03.435Z,11.47
2018-03-15T12:09:33.923Z,10.37
2018-03-15T12:12:04.168Z,11.70
2018-03-15T12:14:34.810Z,11.17
2018-03-15T12:17:05.883Z,12.57
2018-03-15T12:19:41.562Z,11.77
2018-03-15T12:22:12.093Z,9.90
2018-03-15T12:24:49.354Z,11.87
2018-03-15T12:27:29.080Z,9.33
2018-03-15T12:30:06.260Z,11.70
2018-03-15T12:32:36.823Z,11.17
2018-03-15T12:35:07.276Z,11.10
2018-03-15T12:37:44.072Z,11.50
2018-03-15T12:40:14.896Z,10.00
2018-03-15T12:42:45.237Z,9.23
2018-03-15T12:45:22.751Z,11.60
2018-03-15T12:47:53.148Z,8.80
2018-03-15T12:50:41.683Z,10.23
2018-03-15T12:53:13.253Z,9.43
2018-03-15T12:55:45.720Z,9.00
2018-03-15T12:58:16.257Z,10.07
2018-03-15T13:00:47.093Z,9.07
2018-03-15T13:03:17.529Z,11.00
2018-03-15T13:05:47.454Z,9.23
2018-03-15T13:08:17.958Z,8.67
2018-03-15T13:10:48.535Z,9.53
2018-03-15T13:13:19.027Z,8.70
2018-03-15T13:15:49.469Z,9.17
2018-03-15T13:18:20.076Z,11.73
2018-03-15T13:20:50.593Z,9.50
2018-03-15T13:23:20.952Z,9.17
2018-03-15T13:25:51.375Z,9.30
2018-03-15T13:28:21.871Z,10.37
2018-03-15T13:30:52.669Z,10.93
2018-03-15T13:33:23.208Z,9.63
2018-03-15T13:35:55.555Z,9.90
2018-03-15T13:38:26.044Z,9.00
2018-03-15T13:40:56.809Z,12.00
2018-03-15T13:43:27.274Z,10.07
2018-03-15T13:45:57.760Z,11.73
2018-03-15T13:48:29.142Z,9.37
2018-03-15T13:51:11.313Z,10.47
2018-03-15T13:53:41.751Z,9.23
2018-03-15T13:56:12.247Z,10.50
2018-03-15T13:58:42.773Z,8.77
2018-03-15T14:01:16.392Z,11.67
2018-03-15T14:03:47.087Z,11.03
2018-03-15T14:06:17.668Z,9.40
2018-03-15T14:08:48.645Z,10.30
2018-03-15T14:11:19.067Z,9.00
2018-03-15T14:13:49.483Z,9.80
2018-03-15T14:16:24.160Z,8.90
2018-03-15T14:18:54.630Z,9.37
2018-03-15T14:24:28.180Z,10.37
2018-03-15T14:26:58.654Z,10.13
2018-03-15T14:29:31.285Z,9.10
2018-03-15T14:32:01.967Z,8.50
2018-03-15T14:34:34.769Z,10.13
2018-03-15T14:37:05.989Z,9.10
2018-03-15T14:39:36.377Z,9.97
2018-03-15T14:42:06.819Z,8.47
2018-03-15T14:44:39.460Z,9.30
2018-03-15T14:47:10.117Z,9.87
2018-03-15T14:49:40.516Z,11.13
2018-03-15T14:52:17.400Z,11.13
2018-03-15T14:54:47.979Z,9.40
2018-03-15T14:57:18.617Z,8.97
2018-03-15T14:59:53.321Z,8.70
2018-03-15T15:02:54.819Z,8.30
2018-03-15T15:05:25.428Z,9.13
2018-03-15T15:07:57.319Z,8.03
2018-03-15T15:10:33.418Z,11.17
2018-03-15T15:13:04.102Z,7.37
2018-03-15T15:15:34.655Z,8.13
2018-03-15T15:18:05.108Z,9.17
2018-03-15T15:20:49.949Z,7.03
2018-03-15T15:23:20.894Z,7.47
2018-03-15T15:25:52.038Z,9.50
2018-03-15T15:28:22.772Z,9.27
2018-03-15T15:30:55.301Z,7.93
2018-03-15T15:33:26.085Z,8.67
2018-03-15T15:35:56.618Z,7.03
2018-03-15T15:38:27.376Z,7.47
2018-03-15T15:40:57.801Z,9.77
2018-03-15T15:43:28.202Z,7.77
2018-03-15T15:45:58.615Z,7.60
2018-03-15T15:48:29.589Z,7.90
2018-03-15T15:51:02.283Z,7.43
2018-03-15T15:53:38.743Z,7.83
2018-03-15T15:59:12.569Z,7.67
2018-03-15T16:01:42.959Z,8.07
2018-03-15T16:04:13.371Z,6.80
2018-03-15T16:06:43.786Z,7.30
2018-03-15T16:09:14.250Z,8.70
2018-03-15T16:11:44.671Z,9.13
2018-03-15T16:14:16.054Z,9.60
2018-03-15T16:16:46.454Z,7.80
2018-03-15T16:19:17.316Z,7.47
2018-03-15T16:21:47.725Z,11.93
2018-03-15T16:24:18.149Z,8.27
2018-03-15T16:26:48.221Z,7.60
2018-03-15T16:29:19.723Z,8.03
2018-03-15T16:31:50.146Z,12.03
2018-03-15T16:34:21.730Z,10.07
2018-03-15T16:36:52.122Z,9.10
2018-03-15T16:39:22.725Z,9.43
2018-03-15T16:41:53.231Z,9.93
2018-03-15T16:44:23.687Z,8.27
2018-03-15T16:46:54.483Z,11.43
2018-03-15T16:49:25.055Z,8.30
2018-03-15T16:51:55.549Z,8.87
2018-03-15T16:54:25.931Z,9.10
2018-03-15T16:56:56.486Z,11.07
2018-03-15T16:59:26.878Z,8.17
2018-03-15T17:01:57.204Z,11.20
2018-03-15T17:04:27.842Z,11.43
2018-03-15T17:06:58.694Z,10.70
2018-03-15T17:09:29.329Z,12.90
2018-03-15T17:11:59.829Z,10.70
2018-03-15T17:14:30.597Z,13.50
2018-03-15T17:17:01.063Z,31.87
2018-03-15T17:19:31.834Z,14.20
2018-03-15T17:22:02.376Z,11.40
2018-03-15T17:24:32.579Z,24.90
2018-03-15T17:27:03.008Z,13.53
2018-03-15T17:29:33.614Z,9.70
2018-03-15T17:32:05.419Z,10.00
2018-03-15T17:34:36.142Z,9.70
2018-03-15T17:37:07.872Z,11.00
2018-03-15T17:39:50.835Z,10.00
2018-03-15T17:42:21.737Z,9.60
2018-03-15T17:44:52.207Z,11.17
2018-03-15T17:47:23.713Z,9.23
2018-03-15T17:49:54.121Z,9.27
2018-03-15T17:52:24.516Z,8.43
2018-03-15T17:54:54.914Z,7.97
2018-03-15T17:57:25.355Z,8.97
2018-03-15T17:59:56.811Z,9.87
2018-03-15T18:02:27.235Z,9.90
2018-03-15T18:04:57.957Z,8.80
2018-03-15T18:07:28.397Z,8.97
2018-03-15T18:09:58.946Z,9.20
2018-03-15T18:12:37.491Z,10.90
2018-03-15T18:15:08.291Z,8.80
2018-03-15T18:17:38.710Z,10.13
2018-03-15T18:20:09.106Z,8.93
2018-03-15T18:22:39.551Z,8.43
2018-03-15T18:25:10.001Z,10.53
2018-03-15T18:28:05.881Z,13.90
2018-03-15T18:30:37.148Z,10.70
2018-03-15T18:33:07.680Z,11.23
2018-03-15T18:35:39.978Z,12.27
2018-03-15T18:38:10.450Z,12.30
2018-03-15T18:40:46.259Z,12.77
2018-03-15T18:43:16.917Z,9.37
2018-03-15T18:45:48.816Z,9.97
2018-03-15T18:48:21.117Z,10.70
2018-03-15T18:50:52.724Z,10.07
2018-03-15T18:53:23.396Z,18.70
2018-03-15T18:55:54.205Z,13.57
2018-03-15T18:58:26.010Z,11.00
2018-03-15T19:00:56.965Z,10.23
2018-03-15T19:03:27.796Z,9.73
2018-03-15T19:05:59.619Z,9.57
2018-03-15T19:08:32.556Z,10.38
2018-03-15T19:11:04.882Z,9.57
2018-03-15T19:13:51.080Z,13.80
2018-03-15T19:16:24.404Z,11.93
2018-03-15T19:18:55.341Z,9.90
2018-03-15T19:21:26.455Z,10.67
2018-03-15T19:23:57.198Z,9.93
2018-03-15T19:26:28.215Z,9.07
2018-03-15T19:28:59.128Z,9.53
2018-03-15T19:31:31.820Z,9.03
2018-03-15T19:34:03.453Z,8.60
2018-03-15T19:36:34.628Z,9.50
2018-03-15T19:39:05.590Z,9.90
2018-03-15T19:41:36.516Z,10.53
2018-03-15T19:44:07.388Z,12.43
2018-03-15T19:46:38.391Z,10.10
2018-03-15T19:49:09.072Z,10.50
2018-03-15T19:51:39.631Z,10.53
2018-03-15T19:54:11.590Z,10.93
2018-03-15T19:56:45.890Z,11.57
2018-03-15T19:59:17.917Z,9.03
2018-03-15T20:01:48.921Z,11.33
2018-03-15T20:04:19.981Z,13.00
2018-03-15T20:06:51.428Z,11.43
2018-03-15T20:09:22.081Z,10.17
2018-03-15T20:11:52.851Z,11.70
2018-03-15T20:14:23.314Z,10.20
2018-03-15T20:17:00.923Z,11.63
2018-03-15T20:19:32.703Z,11.60
2018-03-15T20:22:03.637Z,11.03
2018-03-15T20:24:38.354Z,11.97
2018-03-15T20:27:13.247Z,11.03
2018-03-15T20:29:43.936Z,11.57
2018-03-15T20:32:19.332Z,13.00
2018-03-15T20:34:49.861Z,12.07
2018-03-15T20:42:18.134Z,11.53
2018-03-15T20:44:50.870Z,13.03
2018-03-15T20:50:13.626Z,12.37
2018-03-15T20:52:44.861Z,10.10
2018-03-15T20:55:27.332Z,12.80
2018-03-15T20:57:58.944Z,11.43
2018-03-15T21:06:12.374Z,15.97
2018-03-15T21:11:37.981Z,12.93
2018-03-15T21:14:09.790Z,12.40
2018-03-15T21:16:51.182Z,11.90
2018-03-15T21:19:29.798Z,11.87
2018-03-15T21:22:00.578Z,13.40
2018-03-15T21:24:32.121Z,11.43
2018-03-15T21:27:02.769Z,16.43
2018-03-15T21:29:34.034Z,13.97
2018-03-15T21:32:16.918Z,14.43
2018-03-15T21:34:54.653Z,13.40
2018-03-15T21:37:25.298Z,18.83
2018-03-15T21:39:55.817Z,13.67
2018-03-15T21:42:26.438Z,12.30
2018-03-15T21:44:57.098Z,13.87
2018-03-15T21:47:29.666Z,14.23
2018-03-15T21:50:01.065Z,14.93
2018-03-15T21:52:32.194Z,15.63
2018-03-15T21:55:03.712Z,14.70
2018-03-15T21:57:35.161Z,14.33
2018-03-15T22:00:05.599Z,18.70
2018-03-15T22:02:36.486Z,16.73
2018-03-15T22:05:07.056Z,14.90
2018-03-15T22:07:37.584Z,18.70
2018-03-15T22:10:08.396Z,18.37
2018-03-15T22:12:39.053Z,18.80
2018-03-15T22:15:09.772Z,18.13
2018-03-15T22:17:40.351Z,16.13
2018-03-15T22:20:10.947Z,17.23
2018-03-15T22:22:42.019Z,17.30
2018-03-15T22:25:13.029Z,16.47
2018-03-15T22:27:44.876Z,18.23
2018-03-15T22:30:15.397Z,19.50
2018-03-15T22:32:45.945Z,18.30
2018-03-15T22:35:16.830Z,17.47
2018-03-15T22:37:50.968Z,18.67
2018-03-15T22:40:21.457Z,18.17
2018-03-15T22:42:51.980Z,19.20
2018-03-15T22:45:22.491Z,23.10
2018-03-15T22:47:54.474Z,19.00
2018-03-15T22:50:24.938Z,19.70
2018-03-15T22:52:55.555Z,20.63
2018-03-15T22:55:26.266Z,18.53
2018-03-15T22:57:57.136Z,19.97
2018-03-15T23:00:27.653Z,22.70
2018-03-15T23:02:58.178Z,21.83
2018-03-15T23:05:28.705Z,21.20
2018-03-15T23:07:59.247Z,22.07
2018-03-15T23:10:29.734Z,25.63
2018-03-15T23:13:00.343Z,26.73
2018-03-15T23:15:31.008Z,23.83
2018-03-15T23:18:02.674Z,26.17
2018-03-15T23:20:33.368Z,24.33
2018-03-15T23:23:04.262Z,26.10
2018-03-15T23:25:34.973Z,24.37
2018-03-15T23:28:10.878Z,22.30
2018-03-15T23:30:41.636Z,27.13
2018-03-15T23:33:12.266Z,26.33
2018-03-15T23:35:42.977Z,27.77
2018-03-15T23:38:13.494Z,28.90
2018-03-15T23:40:44.011Z,29.87
2018-03-15T23:43:14.714Z,26.73
2018-03-15T23:45:46.013Z,29.90
2018-03-15T23:48:16.915Z,29.80
2018-03-15T23:50:47.814Z,27.93
2018-03-15T23:53:18.926Z,31.33
2018-03-15T23:55:49.542Z,31.90
2018-03-15T23:58:20.272Z,30.67
